Airfield :
LOGIN :

Register | Disclaimer

   EN    FR    IT 

 










Legend :    VFR   Marginal VFR   IFR   Intensive IFR   Very Intensive IFR
Visi :
Ceiling :
>= 8 km
>= 3000ft
5 to 8 km
1000 to 3000 ft
1500m to 5 km
500 to 1000 ft
800 to 1500m
200 to 500 ft
< 800m
< 200 ft
Symbols :   Thunderstorms  Fog  Heavy snow  Heavy precipitations  Wind > 20 kt
SIGMETs :     Misc.  Thunderstorms  Icing  Turbulence  Mountain Waves  Volcanic Ashes







- Airport Elevation : 74 ft
- IATA code : MRS
- Download approach charts


LFML - Marseille / Marignane

CURRENT METAR :
  • 131600Z AUTO 09017KT 9999 ///TCU 08/04 Q1006 TEMPO 09018G28KT RA BKN020

EXPIRED METARs :
  • 131530Z AUTO 10017KT 9999 -RA OVC052/// ///TCU 08/04 Q1006 TEMPO 09018G28KT RA BKN020
  • 131500Z AUTO 10018KT 9999 -RA NSC 09/04 Q1006 TEMPO RA
  • 131430Z AUTO 08015KT 9999 -RA NSC 09/04 Q1006 TEMPO RA
  • 131400Z AUTO 08014KT CAVOK 09/04 Q1006 TEMPO RA
  • 131330Z AUTO 08013KT 9999 -RA BKN050 BKN066 OVC084 10/04 Q1007 TEMPO RA

TAF AMD TAF LFML
Valid from the 13 at 15:00 until the 14 at 21:00 UTC


131515Z 1315/1421 08012KT CAVOK TX10/1413Z TN05/1406Z
TEMPO 1315/1321 09018G28KT 6000 RA BKN020
BECMG 1402/1404 35010KT
BECMG 1411/1413 CAVOK
ATIS : +33 4 42 31 15 15
No reported NOTAMs for that airfield.



MET'MAP, your aeronautical weather chart ! - Copyright ORBIFLY December 2007 - Disclaimer

ORBIFLY MET'MAP TEAM :

Programming & Development : Alexandra Zaïnal
Concept & Development : Baudouin d'Aumeries
Co-Development & Prog : Marc-Olivier Méhu
Technical & hardware support : Manuel Goepfert

Contact : metmap@orbifly.com




SOURCES & CREDITS :

   NOAA